Time;durP1;ratioP1;P1;durP2;ratioP2;P2;SDS_P1;SDS_P2;PMS_P1;PMS_P2;Temp;Humidity;BMP_temperature;BMP_pressure;BME280_temperature;BME280_humidity;BME280_pressure;Samples;Min_cycle;Max_cycle;Signal;HPM_P1;HPM_P2
2022/05/07 00:01:43;;;;;;;1.90;1.80;;;;;;;12.81;56.60;99504.28;5116848;27;42459;-77
2022/05/07 00:04:11;;;;;;;2.40;1.73;;;;;;;12.76;56.91;99501.88;5126339;27;40967;-79
2022/05/07 00:06:38;;;;;;;2.27;2.07;;;;;;;12.70;57.38;99502.28;5095729;28;41844;-77
2022/05/07 00:09:07;;;;;;;2.53;2.20;;;;;;;12.64;57.46;99497.31;5113263;28;44610;-76
2022/05/07 00:11:36;;;;;;;1.90;1.63;;;;;;;12.48;57.66;99492.09;5096448;28;43136;-78
2022/05/07 00:14:06;;;;;;;2.37;1.90;;;;;;;12.52;57.87;99506.03;5113264;28;40082;-78
2022/05/07 00:19:18;;;;;;;2.17;1.97;;;;;;;12.36;58.05;99503.44;5111379;28;43809;-79
2022/05/07 00:21:46;;;;;;;1.87;1.77;;;;;;;12.33;57.84;99506.28;5114734;28;42277;-80
2022/05/07 00:24:13;;;;;;;2.40;2.30;;;;;;;12.22;57.97;99496.31;5114762;28;39767;-78
2022/05/07 00:26:41;;;;;;;2.10;1.90;;;;;;;12.17;58.37;99489.53;5113567;27;41644;-78
2022/05/07 00:29:10;;;;;;;3.00;1.70;;;;;;;12.21;58.54;99499.03;5113558;28;43776;-80
2022/05/07 00:31:38;;;;;;;2.23;2.03;;;;;;;12.09;58.47;99489.16;5094938;28;42392;-79
2022/05/07 00:34:05;;;;;;;2.40;2.20;;;;;;;12.05;58.75;99490.25;5113518;28;39996;-77
2022/05/07 00:36:34;;;;;;;2.00;1.80;;;;;;;12.08;58.39;99498.03;5096241;28;40747;-77
2022/05/07 00:39:01;;;;;;;2.00;1.90;;;;;;;12.04;58.29;99507.13;5109323;28;43531;-80
2022/05/07 00:41:29;;;;;;;2.00;1.90;;;;;;;11.94;58.42;99495.34;5112298;28;42198;-78
2022/05/07 00:43:56;;;;;;;1.90;1.80;;;;;;;11.95;58.55;99505.88;5096463;28;40122;-79
2022/05/07 00:46:27;;;;;;;1.80;1.70;;;;;;;11.92;58.66;99502.53;5114174;28;41575;-80
2022/05/07 00:48:56;;;;;;;2.50;2.30;;;;;;;11.87;58.62;99506.28;5096103;28;41407;-78
2022/05/07 00:51:33;;;;;;;1.80;1.70;;;;;;;11.76;58.87;99492.78;5095981;28;40948;-77
2022/05/07 00:54:02;;;;;;;2.93;2.73;;;;;;;11.67;58.96;99487.97;5077274;28;38908;-77
2022/05/07 00:56:31;;;;;;;2.10;1.90;;;;;;;11.73;59.35;99505.38;5097770;27;41794;-78
2022/05/07 00:59:00;;;;;;;1.90;1.80;;;;;;;11.68;59.08;99495.00;5134452;27;20700;-80
2022/05/07 01:01:29;;;;;;;1.73;1.63;;;;;;;11.65;59.50;99505.78;5115956;27;41302;-77
2022/05/07 01:03:57;;;;;;;1.77;1.67;;;;;;;11.62;59.37;99505.13;5133941;27;40783;-80
2022/05/07 01:06:31;;;;;;;1.93;1.83;;;;;;;11.58;59.88;99500.91;5133578;27;41945;-78
2022/05/07 01:08:59;;;;;;;2.53;2.33;;;;;;;11.56;60.18;99494.84;5116420;27;45185;-77
2022/05/07 01:11:29;;;;;;;1.80;1.70;;;;;;;11.53;60.12;99501.16;5133136;27;41158;-79
2022/05/07 01:14:00;;;;;;;1.50;1.40;;;;;;;11.15;60.36;99437.84;5116079;27;41617;-79
2022/05/07 01:16:32;;;;;;;2.00;1.90;;;;;;;11.46;60.33;99499.81;5133717;27;42021;-79
2022/05/07 01:18:59;;;;;;;2.23;2.07;;;;;;;11.39;60.30;99493.97;5116063;27;42998;-80
2022/05/07 01:21:29;;;;;;;2.43;2.23;;;;;;;11.39;60.32;99496.63;5116125;27;41285;-80
2022/05/07 01:23:58;;;;;;;2.03;1.93;;;;;;;11.28;60.29;99484.91;5133924;27;40903;-78
2022/05/07 01:26:30;;;;;;;1.87;1.77;;;;;;;11.31;60.40;99492.69;5115903;27;42102;-79
2022/05/07 01:29:01;;;;;;;2.17;1.97;;;;;;;11.27;60.65;99489.34;5133012;27;43795;-78
2022/05/07 01:31:31;;;;;;;2.30;2.10;;;;;;;11.23;60.76;99486.97;5115827;27;42894;-79
2022/05/07 01:33:59;;;;;;;1.90;1.80;;;;;;;11.19;60.76;99496.03;5133133;27;41853;-81
2022/05/07 01:36:31;;;;;;;2.47;1.80;;;;;;;11.08;60.76;99478.91;5115479;27;41851;-80
2022/05/07 01:39:03;;;;;;;2.43;1.70;;;;;;;11.10;60.79;99492.94;5112738;27;42869;-79
2022/05/07 01:41:31;;;;;;;1.73;1.63;;;;;;;11.02;60.91;99479.22;5111623;28;42159;-81
2022/05/07 01:43:59;;;;;;;2.97;2.23;;;;;;;10.67;60.74;99436.09;5109065;28;39795;-80
2022/05/07 01:49:15;;;;;;;1.90;1.80;;;;;;;10.95;61.08;99491.13;5109185;28;43957;-80
2022/05/07 01:51:44;;;;;;;1.90;1.70;;;;;;;10.90;61.10;99487.84;5095365;28;41597;-78
2022/05/07 01:54:12;;;;;;;1.63;1.53;;;;;;;10.86;60.94;99496.91;5108779;28;40290;-78
2022/05/07 01:56:40;;;;;;;2.10;1.90;;;;;;;10.83;61.05;99488.28;5116011;27;43263;-80
2022/05/07 01:59:07;;;;;;;2.43;2.23;;;;;;;10.78;61.17;99488.50;5132866;27;42815;-78
2022/05/07 02:01:36;;;;;;;1.80;1.70;;;;;;;10.74;61.27;99492.28;5115179;27;41305;-80
2022/05/07 02:04:04;;;;;;;1.83;1.73;;;;;;;10.65;61.26;99484.78;5132549;27;39065;-80
2022/05/07 02:06:32;;;;;;;2.13;1.97;;;;;;;10.55;61.29;99473.81;5132489;27;41483;-78
2022/05/07 02:09:01;;;;;;;3.47;1.90;;;;;;;10.55;61.67;99472.97;5116248;27;41829;-79
2022/05/07 02:11:32;;;;;;;2.10;1.90;;;;;;;10.59;61.48;99485.97;5118750;27;41950;-78
2022/05/07 02:14:00;;;;;;;2.27;2.07;;;;;;;10.56;61.61;99486.13;5118898;27;41162;-78
2022/05/07 02:16:28;;;;;;;1.87;1.60;;;;;;;10.49;61.60;99478.59;5114895;28;41938;-79
2022/05/07 02:18:56;;;;;;;2.73;1.77;;;;;;;10.39;61.67;99471.13;5114816;28;43176;-78
2022/05/07 02:21:23;;;;;;;2.10;2.00;;;;;;;10.46;61.68;99484.06;5113464;28;43200;-78
2022/05/07 02:23:52;;;;;;;2.13;2.03;;;;;;;10.41;61.72;99487.78;5114543;28;41153;-78
2022/05/07 02:26:21;;;;;;;2.07;1.87;;;;;;;10.34;62.09;99472.31;5114676;28;42013;-79
2022/05/07 02:28:50;;;;;;;1.87;1.73;;;;;;;10.35;62.30;99484.63;5115121;28;43143;-78
2022/05/07 02:31:18;;;;;;;2.13;1.93;;;;;;;10.32;62.29;99479.47;5098218;28;44209;-79
2022/05/07 02:33:49;;;;;;;2.60;2.40;;;;;;;10.25;62.25;99476.28;5100109;27;39705;-80
2022/05/07 02:36:18;;;;;;;2.10;2.00;;;;;;;10.24;62.35;99479.00;5113671;27;41956;-78
2022/05/07 02:38:45;;;;;;;1.80;1.70;;;;;;;10.20;62.48;99477.44;5094029;28;44958;-79
2022/05/07 02:44:04;;;;;;;2.07;1.97;;;;;;;10.12;62.82;99491.06;5108428;28;40884;-77
2022/05/07 02:46:32;;;;;;;1.83;1.73;;;;;;;10.07;62.69;99487.75;5103402;27;41887;-80
2022/05/07 02:49:01;;;;;;;2.30;2.03;;;;;;;10.04;63.02;99490.56;5133947;27;42701;-78
2022/05/07 02:51:29;;;;;;;1.97;1.87;;;;;;;10.01;63.01;99488.09;5115301;27;43764;-78
2022/05/07 02:53:57;;;;;;;2.50;2.30;;;;;;;9.97;63.02;99484.72;5096064;27;38888;-80
2022/05/07 02:56:24;;;;;;;2.17;2.03;;;;;;;9.95;63.31;99483.09;5097630;28;41835;-79
2022/05/07 02:58:52;;;;;;;2.30;2.10;;;;;;;9.65;62.94;99440.47;5114886;28;43554;-78
2022/05/07 03:01:21;;;;;;;1.93;1.83;;;;;;;9.88;63.16;99481.69;5097932;28;41632;-80
2022/05/07 03:03:50;;;;;;;1.97;1.87;;;;;;;9.85;62.84;99477.41;5115405;28;39852;-78
2022/05/07 03:06:18;;;;;;;2.30;1.80;;;;;;;9.83;63.13;99478.41;5097289;28;41945;-78
2022/05/07 03:08:45;;;;;;;1.60;1.50;;;;;;;9.80;63.19;99483.84;5097337;28;41585;-79
2022/05/07 03:11:14;;;;;;;1.83;1.73;;;;;;;9.77;63.12;99478.72;5114334;28;43010;-79
2022/05/07 03:13:42;;;;;;;1.73;1.63;;;;;;;9.72;63.34;99482.44;5097865;28;39965;-78
2022/05/07 03:16:10;;;;;;;1.83;1.57;;;;;;;9.68;63.17;99478.22;5114531;28;42811;-79
2022/05/07 03:18:39;;;;;;;1.80;1.70;;;;;;;9.64;63.59;99474.00;5114520;28;43703;-78
2022/05/07 03:21:07;;;;;;;1.63;1.53;;;;;;;9.62;63.41;99480.31;5114465;28;42428;-79
2022/05/07 03:23:34;;;;;;;1.90;1.80;;;;;;;9.59;63.48;99480.47;5111149;27;38861;-79
2022/05/07 03:26:09;;;;;;;2.50;2.30;;;;;;;9.53;63.92;99476.31;5117835;27;42023;-78
2022/05/07 03:28:38;;;;;;;2.27;1.90;;;;;;;9.50;64.15;99476.50;5117921;27;41590;-78
2022/05/07 03:31:06;;;;;;;2.77;1.83;;;;;;;9.42;64.42;99470.69;5136145;27;42975;-78
2022/05/07 03:33:34;;;;;;;2.23;2.13;;;;;;;9.44;65.03;99481.19;5135479;27;39019;-77
2022/05/07 03:36:04;;;;;;;3.37;2.50;;;;;;;9.40;64.84;99476.97;5134592;27;41717;-77
2022/05/07 03:38:32;;;;;;;1.90;1.80;;;;;;;9.37;64.79;99470.06;5134592;27;42568;-78
2022/05/07 03:41:06;;;;;;;2.57;2.37;;;;;;;9.34;65.07;99475.50;5117779;27;42355;-77
2022/05/07 03:43:39;;;;;;;2.33;2.20;;;;;;;9.31;65.02;99475.63;5117661;27;38693;-77
2022/05/07 03:46:08;;;;;;;3.47;2.10;;;;;;;9.29;64.90;99480.13;5117574;27;41847;-79
2022/05/07 03:48:37;;;;;;;1.80;1.70;;;;;;;9.27;64.87;99484.66;5117928;27;42756;-79
2022/05/07 03:51:07;;;;;;;2.67;2.07;;;;;;;9.15;64.69;99464.09;5135183;27;42020;-77
2022/05/07 03:53:35;;;;;;;1.97;1.87;;;;;;;9.14;65.08;99473.81;5119442;27;40910;-78
2022/05/07 03:56:23;;;;;;;2.47;2.27;;;;;;;9.22;65.10;99489.28;5113636;28;40977;-77
2022/05/07 03:58:51;;;;;;;2.10;2.00;;;;;;;9.21;64.92;99487.56;5114356;28;41787;-80
2022/05/07 04:01:35;;;;;;;2.10;2.00;;;;;;;9.08;64.74;99467.94;5113849;28;43777;-77
2022/05/07 04:04:03;;;;;;;2.20;2.00;;;;;;;9.07;64.95;99472.38;5097252;28;40005;-79
2022/05/07 04:06:33;;;;;;;2.40;2.20;;;;;;;9.22;64.92;99489.28;5096754;28;40032;-77
2022/05/07 04:09:01;;;;;;;1.87;1.77;;;;;;;9.22;65.05;99489.28;5114096;28;42707;-79
2022/05/07 04:11:28;;;;;;;2.30;2.10;;;;;;;9.24;65.28;99487.44;5099093;28;42733;-77
2022/05/07 04:13:59;;;;;;;2.20;2.00;;;;;;;9.27;65.30;99484.66;5096792;28;39335;-77
2022/05/07 04:16:27;;;;;;;1.77;1.67;;;;;;;9.30;64.83;99489.78;5113645;28;41418;-77
2022/05/07 04:19:03;;;;;;;1.63;1.53;;;;;;;9.33;65.14;99490.50;5097377;28;41948;-77
2022/05/07 04:21:34;;;;;;;1.87;1.77;;;;;;;9.38;64.90;99495.59;5096831;28;42841;-77
2022/05/07 04:24:11;;;;;;;1.83;1.73;;;;;;;9.43;65.11;99496.19;5118180;27;40895;-78
2022/05/07 04:26:39;;;;;;;1.77;1.67;;;;;;;9.47;65.15;99492.50;5108196;28;44203;-77
2022/05/07 04:29:07;;;;;;;1.63;1.53;;;;;;;9.53;65.25;99497.47;5089704;28;41918;-78
2022/05/07 04:31:35;;;;;;;2.20;1.70;;;;;;;9.60;65.01;99498.91;5119399;28;43189;-77
2022/05/07 04:34:08;;;;;;;1.80;1.70;;;;;;;9.63;65.27;99490.84;5111716;27;40792;-79
2022/05/07 04:36:39;;;;;;;4.37;2.27;;;;;;;9.73;65.39;99492.09;5108638;28;40825;-77
2022/05/07 04:39:12;;;;;;;2.27;2.13;;;;;;;9.85;65.26;99503.00;5122701;28;43098;-76
2022/05/07 04:41:55;;;;;;;2.30;2.10;;;;;;;9.95;65.23;99498.97;5123624;27;41326;-80
2022/05/07 04:44:29;;;;;;;2.77;2.33;;;;;;;10.05;65.06;99494.91;5128981;27;39163;-79
2022/05/07 04:46:57;;;;;;;2.27;1.90;;;;;;;10.15;65.22;99498.81;5112570;28;41055;-78
2022/05/07 04:49:25;;;;;;;3.93;2.40;;;;;;;10.23;65.19;99499.34;5096341;28;41739;-80
2022/05/07 04:51:54;;;;;;;2.67;1.90;;;;;;;10.31;65.05;99497.13;5094917;28;41403;-80
2022/05/07 04:54:26;;;;;;;2.10;2.00;;;;;;;10.38;65.48;99497.69;5096164;28;39765;-77
2022/05/07 04:56:54;;;;;;;5.10;2.00;;;;;;;10.48;65.41;99503.38;5113486;28;41587;-77
2022/05/07 04:59:35;;;;;;;1.90;1.80;;;;;;;10.54;65.38;99493.31;5110235;28;43818;-77
2022/05/07 05:02:10;;;;;;;2.53;2.10;;;;;;;10.65;64.99;99508.63;5108607;28;42288;-77
2022/05/07 05:04:39;;;;;;;2.10;2.00;;;;;;;10.74;64.65;99516.13;5095301;28;40677;-78
2022/05/07 05:07:13;;;;;;;2.23;2.10;;;;;;;10.84;64.85;99517.34;5107708;28;41989;-77
2022/05/07 05:09:43;;;;;;;2.20;1.93;;;;;;;10.94;64.61;99515.03;5109902;28;43025;-79
2022/05/07 05:12:17;;;;;;;2.47;1.83;;;;;;;11.05;64.62;99512.66;5097598;27;41087;-78
2022/05/07 05:15:03;;;;;;;2.67;2.47;;;;;;;11.14;64.47;99506.88;5109683;28;39928;-78
2022/05/07 05:17:46;;;;;;;3.03;2.23;;;;;;;11.27;64.39;99520.31;5111542;27;41746;-77
2022/05/07 05:20:14;;;;;;;1.97;1.87;;;;;;;11.41;64.69;99523.06;5111630;28;44207;-80
2022/05/07 05:22:52;;;;;;;2.40;2.20;;;;;;;11.53;64.26;99522.38;5108922;28;42184;-80
2022/05/07 05:25:25;;;;;;;2.60;2.40;;;;;;;11.66;64.25;99534.03;5111448;27;39960;-78
2022/05/07 05:27:53;;;;;;;2.33;2.07;;;;;;;11.75;64.42;99528.22;5094804;28;42703;-80
2022/05/07 05:30:22;;;;;;;2.10;1.93;;;;;;;11.81;64.48;99521.72;5111436;28;42889;-77
2022/05/07 05:32:52;;;;;;;3.37;2.23;;;;;;;11.94;64.55;99528.03;5094943;28;42687;-80
2022/05/07 05:35:19;;;;;;;2.47;2.27;;;;;;;12.06;64.97;99523.81;5111428;28;40955;-80
2022/05/07 05:37:54;;;;;;;2.80;2.53;;;;;;;12.12;64.47;99520.78;5095128;28;40522;-80
2022/05/07 05:40:22;;;;;;;3.47;2.50;;;;;;;12.28;64.20;99537.56;5093002;28;43222;-80
2022/05/07 05:42:53;;;;;;;2.20;2.10;;;;;;;12.35;64.12;99522.13;5110256;28;42418;-79
2022/05/07 05:45:22;;;;;;;3.90;2.10;;;;;;;12.64;64.11;99533.66;5111309;28;41670;-77
2022/05/07 05:47:49;;;;;;;2.37;2.17;;;;;;;12.80;63.83;99540.63;5111861;28;42489;-77
2022/05/07 05:50:17;;;;;;;3.07;2.83;;;;;;;12.92;63.77;99539.03;5111197;28;42744;-79
2022/05/07 05:52:47;;;;;;;2.10;2.00;;;;;;;13.11;63.24;99544.06;5108290;28;43425;-79
2022/05/07 05:55:18;;;;;;;5.10;2.83;;;;;;;13.25;63.08;99544.09;5094289;28;38936;-79
2022/05/07 05:57:49;;;;;;;3.07;2.87;;;;;;;13.26;62.89;99528.03;5094892;28;40691;-77
2022/05/07 06:00:18;;;;;;;2.50;2.33;;;;;;;13.47;62.94;99549.78;5110469;28;42924;-79
2022/05/07 06:02:49;;;;;;;2.67;2.47;;;;;;;13.59;62.77;99550.81;5121261;27;43227;-81
2022/05/07 06:05:23;;;;;;;2.43;2.23;;;;;;;13.70;62.41;99553.66;5096279;28;41833;-79
2022/05/07 06:07:54;;;;;;;4.03;2.67;;;;;;;13.82;61.97;99557.31;5094315;28;41368;-80
2022/05/07 06:10:30;;;;;;;3.17;2.30;;;;;;;13.93;61.91;99554.81;5093590;28;43172;-82
2022/05/07 06:12:58;;;;;;;2.93;2.23;;;;;;;14.07;61.69;99557.44;5094136;28;42412;-77
2022/05/07 06:15:27;;;;;;;2.93;2.33;;;;;;;14.26;60.65;99565.91;5093612;28;38792;-79
2022/05/07 06:17:56;;;;;;;2.13;1.93;;;;;;;14.60;58.76;99567.19;5094290;28;42498;-79
2022/05/07 06:20:24;;;;;;;2.07;1.97;;;;;;;14.94;58.47;99564.91;5110732;28;42656;-78
2022/05/07 06:22:59;;;;;;;2.37;2.17;;;;;;;15.14;58.48;99567.03;5091455;28;41071;-79
2022/05/07 06:28:15;;;;;;;2.37;2.17;;;;;;;15.41;57.87;99565.09;5091552;28;41760;-79
2022/05/07 06:30:44;;;;;;;2.83;2.63;;;;;;;16.02;57.18;99579.41;5109523;28;42737;-83
2022/05/07 06:33:15;;;;;;;2.83;2.53;;;;;;;16.74;55.71;99582.91;5093926;28;41492;-79
2022/05/07 06:35:52;;;;;;;2.20;2.00;;;;;;;17.27;55.18;99580.59;5094017;28;42329;-80
2022/05/07 06:38:26;;;;;;;2.30;2.10;;;;;;;17.58;54.83;99561.09;5093948;28;41643;-78
2022/05/07 06:40:56;;;;;;;2.03;1.93;;;;;;;17.83;54.34;99576.09;5111012;28;43772;-81
2022/05/07 06:43:24;;;;;;;2.80;2.60;;;;;;;17.86;54.05;99581.22;5090014;28;43100;-80
2022/05/07 06:46:08;;;;;;;2.70;2.50;;;;;;;18.07;53.39;99586.63;5110078;28;39685;-80
2022/05/07 06:48:42;;;;;;;2.40;2.20;;;;;;;18.17;52.70;99587.63;5108196;28;41829;-80
2022/05/07 06:51:18;;;;;;;2.73;2.50;;;;;;;18.33;52.34;99584.50;5105363;28;43458;-79
2022/05/07 06:53:45;;;;;;;2.97;2.77;;;;;;;18.37;52.29;99579.75;5111596;28;42352;-77
2022/05/07 06:56:14;;;;;;;2.97;2.77;;;;;;;18.42;52.26;99585.59;5093257;28;39906;-79
2022/05/07 06:58:43;;;;;;;2.60;2.40;;;;;;;18.48;52.63;99577.88;5096021;28;41803;-78
2022/05/07 07:01:12;;;;;;;2.70;2.50;;;;;;;18.48;52.54;99583.22;5116115;27;43495;-79
2022/05/07 07:03:40;;;;;;;2.73;2.53;;;;;;;18.46;52.20;99581.66;5100544;28;43068;-80
2022/05/07 07:06:08;;;;;;;3.07;2.47;;;;;;;18.50;53.97;99569.69;5110006;27;39045;-80
2022/05/07 07:08:36;;;;;;;2.70;2.50;;;;;;;18.60;53.32;99571.50;5092347;28;42339;-81
2022/05/07 07:11:03;;;;;;;2.50;2.40;;;;;;;18.66;52.68;99578.19;5080707;28;42111;-78
2022/05/07 07:13:32;;;;;;;2.83;2.63;;;;;;;18.75;51.97;99585.47;5111181;28;43426;-79
2022/05/07 07:15:59;;;;;;;2.60;2.40;;;;;;;18.97;52.50;99584.47;5109834;27;38788;-78
2022/05/07 07:18:27;;;;;;;3.97;2.60;;;;;;;19.21;50.87;99584.19;5092559;28;41904;-79
2022/05/07 07:20:55;;;;;;;2.77;2.57;;;;;;;19.44;50.83;99592.94;5109470;27;42728;-81
2022/05/07 07:23:22;;;;;;;2.90;2.70;;;;;;;19.85;48.89;99592.03;5110935;28;42364;-78
2022/05/07 07:25:50;;;;;;;2.57;2.37;;;;;;;20.65;48.00;99587.34;5110419;28;40865;-78
2022/05/07 07:28:18;;;;;;;4.13;2.30;;;;;;;21.31;47.55;99595.50;5112250;27;40799;-79
2022/05/07 07:30:46;;;;;;;2.50;2.30;;;;;;;21.55;46.35;99611.19;5089360;28;42796;-81
2022/05/07 07:33:14;;;;;;;2.47;2.27;;;;;;;21.56;46.12;99610.19;5072211;28;42007;-80
2022/05/07 07:35:44;;;;;;;2.40;2.20;;;;;;;21.53;46.10;99607.78;5107164;28;41120;-77
2022/05/07 07:38:12;;;;;;;2.20;2.00;;;;;;;21.57;45.82;99603.81;5108814;28;42082;-78
2022/05/07 07:40:40;;;;;;;3.30;2.33;;;;;;;21.69;44.54;99605.31;5120776;27;42525;-77
2022/05/07 07:43:10;;;;;;;2.23;2.13;;;;;;;22.06;45.55;99599.91;5113222;28;43361;-80
2022/05/07 07:48:24;;;;;;;3.43;1.90;;;;;;;22.47;42.48;99605.75;5110378;28;42686;-80
2022/05/07 07:50:51;;;;;;;2.27;2.07;;;;;;;22.64;43.38;99610.31;5113212;28;43054;-82
2022/05/07 07:53:22;;;;;;;1.70;1.60;;;;;;;22.68;43.33;99613.56;5096500;28;40742;-81
2022/05/07 07:55:51;;;;;;;2.23;2.07;;;;;;;22.96;44.83;99601.69;5113006;28;39048;-79
2022/05/07 07:58:19;;;;;;;3.30;1.83;;;;;;;23.35;42.73;99606.72;5099233;28;42730;-80
2022/05/07 08:00:47;;;;;;;1.93;1.83;;;;;;;23.67;43.12;99598.81;5112774;28;43095;-81
2022/05/07 08:03:16;;;;;;;1.53;1.43;;;;;;;24.08;41.05;99620.66;5114572;28;43107;-81
2022/05/07 08:05:46;;;;;;;2.00;1.90;;;;;;;24.12;40.97;99612.00;5113339;27;40031;-80
2022/05/07 08:13:46;;;;;;;1.67;1.57;;;;;;;25.31;35.44;99647.81;5104347;28;42191;-79
2022/05/07 08:16:17;;;;;;;2.37;1.87;;;;;;;25.56;36.15;99645.91;5116335;27;41825;-80
2022/05/07 08:18:45;;;;;;;1.90;1.60;;;;;;;25.70;35.67;99651.53;5111066;27;41568;-79
2022/05/07 08:21:14;;;;;;;1.87;1.77;;;;;;;25.60;34.65;99658.94;5095936;28;44676;-82
2022/05/07 08:23:43;;;;;;;1.90;1.67;;;;;;;25.70;35.76;99647.97;5092202;28;43621;-81
2022/05/07 08:26:11;;;;;;;1.47;1.27;;;;;;;26.39;35.94;99638.22;5110170;28;41047;-80
2022/05/07 08:28:40;;;;;;;3.13;1.43;;;;;;;27.74;32.83;99662.84;5112780;27;41917;-81
2022/05/07 08:31:10;;;;;;;2.10;1.90;;;;;;;28.84;31.04;99671.03;5111741;28;42742;-81
2022/05/07 08:33:40;;;;;;;2.00;1.80;;;;;;;29.44;30.24;99676.03;5113992;27;42808;-81
2022/05/07 08:36:09;;;;;;;2.17;2.07;;;;;;;29.81;29.96;99674.00;5115754;27;39566;-82
2022/05/07 08:38:39;;;;;;;2.10;1.87;;;;;;;30.31;27.59;99670.13;5113224;28;42573;-81
2022/05/07 08:41:06;;;;;;;1.77;1.47;;;;;;;31.04;26.11;99693.97;5113637;28;43026;-82
2022/05/07 08:43:36;;;;;;;1.57;1.40;;;;;;;31.54;26.19;99694.47;5111216;28;42233;-82
2022/05/07 08:46:09;;;;;;;2.70;1.60;;;;;;;32.03;26.36;99676.72;5115186;27;39057;-80
2022/05/07 08:48:40;;;;;;;1.70;1.60;;;;;;;32.96;24.14;99694.56;5093127;28;42446;-83
2022/05/07 08:51:08;;;;;;;3.03;1.87;;;;;;;33.95;23.89;99704.81;5111672;28;42751;-84
2022/05/07 08:53:36;;;;;;;2.07;1.87;;;;;;;34.82;23.67;99692.63;5111230;27;43040;-79
2022/05/07 08:56:07;;;;;;;1.60;1.50;;;;;;;35.06;23.04;99684.47;5112219;27;40005;-84
2022/05/07 08:58:34;;;;;;;1.63;1.53;;;;;;;34.58;22.74;99693.56;5108067;28;41792;-85
2022/05/07 09:01:02;;;;;;;3.10;1.57;;;;;;;33.78;22.02;99698.22;5111925;28;43524;-83
2022/05/07 09:03:41;;;;;;;1.53;1.43;;;;;;;33.04;23.32;99690.69;5110940;28;42075;-80
2022/05/07 09:06:20;;;;;;;1.20;1.10;;;;;;;32.56;23.11;99693.03;5110357;28;39916;-83
2022/05/07 09:08:50;;;;;;;1.63;1.20;;;;;;;32.39;24.12;99677.06;5108902;28;43011;-83
2022/05/07 09:11:19;;;;;;;2.10;1.20;;;;;;;32.45;21.82;99692.66;5093236;28;41605;-85
2022/05/07 09:13:47;;;;;;;1.97;1.40;;;;;;;32.25;23.95;99675.47;5093607;28;42961;-80
2022/05/07 09:16:16;;;;;;;1.30;1.20;;;;;;;32.40;23.63;99666.94;5111906;28;39945;-89
2022/05/07 09:18:49;;;;;;;1.20;1.10;;;;;;;32.29;23.05;99687.66;5110778;28;42498;-79
2022/05/07 09:21:17;;;;;;;1.53;1.37;;;;;;;31.74;21.62;99694.50;5110463;28;43512;-81
2022/05/07 09:23:45;;;;;;;1.40;1.30;;;;;;;31.12;22.13;99695.72;5111322;27;42476;-86
2022/05/07 09:26:25;;;;;;;1.30;1.20;;;;;;;30.85;25.66;99653.75;5110099;28;39908;-80
2022/05/07 09:28:53;;;;;;;1.80;1.50;;;;;;;30.85;23.89;99644.69;5092876;28;40625;-87
2022/05/07 09:31:26;;;;;;;1.83;1.40;;;;;;;31.02;24.53;99667.88;5110626;28;43148;-82
2022/05/07 09:33:54;;;;;;;1.40;1.03;;;;;;;31.14;23.41;99673.63;5110055;28;41002;-81
2022/05/07 09:36:23;;;;;;;1.00;0.93;;;;;;;30.92;23.13;99635.44;5109973;28;40699;-82
2022/05/07 09:39:00;;;;;;;1.23;1.13;;;;;;;31.30;22.17;99682.25;5111251;28;42249;-85
2022/05/07 09:41:29;;;;;;;2.63;1.43;;;;;;;31.38;22.25;99626.47;5065012;28;1289924;-83
2022/05/07 09:44:00;;;;;;;3.23;1.30;;;;;;;31.86;22.46;99670.88;5094450;28;43176;-84
2022/05/07 09:46:30;;;;;;;2.07;1.40;;;;;;;31.56;22.49;99659.50;5113578;27;40262;-82
2022/05/07 09:49:00;;;;;;;1.70;1.43;;;;;;;31.39;24.12;99650.03;5094302;28;41837;-83
2022/05/07 09:51:29;;;;;;;1.27;1.17;;;;;;;32.08;22.48;99661.34;5112028;28;42682;-82
2022/05/07 09:59:31;;;;;;;1.17;1.07;;;;;;;33.74;22.16;99659.34;5111604;28;40659;-84
2022/05/07 10:02:23;;;;;;;1.40;1.20;;;;;;;33.57;19.55;99691.19;5094879;28;43569;-86
2022/05/07 10:05:11;;;;;;;1.47;1.30;;;;;;;33.39;19.75;99682.88;5109869;28;42147;-79
2022/05/07 10:07:53;;;;;;;1.30;1.20;;;;;;;32.96;20.31;99661.63;5112112;28;39886;-83
2022/05/07 10:10:25;;;;;;;1.57;1.37;;;;;;;32.43;20.76;99639.94;5110502;28;42664;-84
2022/05/07 10:12:57;;;;;;;1.30;1.20;;;;;;;32.61;20.89;99658.44;5096066;28;41984;-84
2022/05/07 10:15:26;;;;;;;1.33;1.20;;;;;;;33.54;20.00;99664.16;5095058;28;43879;-82
2022/05/07 10:18:02;;;;;;;1.37;1.20;;;;;;;33.84;19.69;99670.69;5112937;28;39913;-89
2022/05/07 10:20:39;;;;;;;1.27;1.17;;;;;;;34.13;20.00;99663.59;5108050;28;40688;-79
2022/05/07 10:23:09;;;;;;;1.70;1.30;;;;;;;35.06;20.63;99646.75;5088282;28;42510;-83
2022/05/07 10:25:37;;;;;;;1.00;1.00;;;;;;;35.75;19.29;99650.72;5090797;28;41003;-78
2022/05/07 10:28:10;;;;;;;1.23;1.13;;;;;;;36.10;18.91;99649.88;5091080;28;38951;-81
2022/05/07 10:30:49;;;;;;;1.40;1.30;;;;;;;36.52;18.97;99656.84;5089180;28;41934;-82
2022/05/07 10:33:18;;;;;;;1.38;1.00;;;;;;;36.67;18.77;99648.88;5073986;28;41811;-82
2022/05/07 10:35:49;;;;;;;1.45;1.25;;;;;;;36.82;17.72;99661.34;5091281;28;41014;-87
2022/05/07 10:38:26;;;;;;;2.07;1.47;;;;;;;36.99;16.57;99670.47;5089821;28;41129;-83
2022/05/07 10:40:57;;;;;;;1.20;1.10;;;;;;;37.30;17.20;99655.31;5073573;28;40979;-81
2022/05/07 10:43:29;;;;;;;1.17;1.07;;;;;;;37.53;16.80;99662.59;5073373;28;41930;-86
2022/05/07 10:46:00;;;;;;;1.50;1.40;;;;;;;37.18;16.39;99669.22;5074289;28;41174;-84
2022/05/07 10:48:28;;;;;;;1.30;1.20;;;;;;;36.23;17.16;99642.16;5075157;28;39609;-84
2022/05/07 10:51:02;;;;;;;1.43;1.33;;;;;;;35.47;17.62;99653.31;5091638;28;40623;-83
2022/05/07 10:53:37;;;;;;;1.30;1.20;;;;;;;35.40;17.82;99647.06;5089934;28;42978;-82
2022/05/07 10:56:05;;;;;;;1.20;1.10;;;;;;;35.80;18.18;99637.06;5091663;28;43217;-82
2022/05/07 10:58:35;;;;;;;1.53;1.10;;;;;;;36.00;18.39;99631.97;5090308;28;38959;-83
2022/05/07 11:01:03;;;;;;;1.33;1.23;;;;;;;35.68;17.58;99643.63;5073488;28;41911;-80
2022/05/07 11:03:32;;;;;;;2.63;1.50;;;;;;;35.22;17.80;99642.47;5091461;28;43797;-79
2022/05/07 11:06:01;;;;;;;1.27;1.17;;;;;;;35.06;20.36;99607.34;5090179;28;41279;-82
2022/05/07 11:08:30;;;;;;;2.93;1.47;;;;;;;35.09;19.31;99607.72;5073744;28;38800;-81
2022/05/07 11:11:07;;;;;;;1.30;1.20;;;;;;;35.75;18.49;99616.78;5091125;28;42606;-84
2022/05/07 11:13:45;;;;;;;1.57;1.47;;;;;;;36.27;18.06;99614.94;5089160;28;42701;-83
2022/05/07 11:16:13;;;;;;;1.10;1.07;;;;;;;36.86;18.49;99608.09;5093058;28;42108;-81
2022/05/07 11:18:42;;;;;;;4.80;1.52;;;;;;;37.00;16.43;99616.91;5077455;28;38841;-85
2022/05/07 11:21:09;;;;;;;1.52;1.30;;;;;;;36.74;16.19;99629.41;5093935;28;41256;-81
2022/05/07 11:23:37;;;;;;;2.03;1.20;;;;;;;35.94;19.22;99602.63;5094250;28;42503;-78
2022/05/07 11:26:17;;;;;;;1.30;1.20;;;;;;;35.27;19.65;99582.03;5093547;28;41350;-85
2022/05/07 11:28:46;;;;;;;1.43;1.33;;;;;;;35.21;19.74;99589.31;5077025;28;39904;-81
2022/05/07 11:31:26;;;;;;;3.20;1.20;;;;;;;35.25;18.00;99612.56;5093603;28;41717;-82
2022/05/07 11:34:04;;;;;;;1.30;1.23;;;;;;;35.20;19.69;99576.63;5093866;28;43222;-81
2022/05/07 11:36:32;;;;;;;1.30;1.20;;;;;;;35.11;18.55;99599.25;5093166;28;42840;-80
2022/05/07 11:39:02;;;;;;;1.20;1.10;;;;;;;34.85;21.20;99583.97;5076651;28;40555;-81
2022/05/07 11:41:30;;;;;;;1.80;1.40;;;;;;;34.72;18.51;99609.75;5076432;28;41779;-77
2022/05/07 11:46:52;;;;;;;2.10;1.30;;;;;;;34.94;17.95;99610.09;5093425;28;42274;-80
2022/05/07 11:49:41;;;;;;;1.10;1.03;;;;;;;35.43;18.82;99594.25;5093449;28;40025;-80
2022/05/07 11:52:10;;;;;;;1.30;1.20;;;;;;;35.74;18.18;99582.88;5098984;27;41801;-82
2022/05/07 11:54:48;;;;;;;1.10;1.10;;;;;;;36.41;17.31;99596.19;5113633;28;43290;-80
2022/05/07 11:57:27;;;;;;;1.40;1.30;;;;;;;37.90;16.81;99571.66;5113820;28;42204;-80
2022/05/07 11:59:57;;;;;;;1.60;1.20;;;;;;;39.33;15.33;99577.63;5112757;28;40261;-80
2022/05/07 12:02:25;;;;;;;1.43;1.30;;;;;;;40.47;14.28;99596.34;5113405;28;40657;-81
2022/05/07 12:05:00;;;;;;;1.83;1.20;;;;;;;40.96;14.18;99590.34;5113098;28;42645;-77
2022/05/07 12:07:39;;;;;;;1.77;1.25;;;;;;;41.53;13.60;99599.25;5113457;28;43522;-82
2022/05/07 12:10:12;;;;;;;1.40;1.30;;;;;;;42.52;15.02;99569.75;5111514;28;40921;-81
2022/05/07 12:12:39;;;;;;;1.95;1.35;;;;;;;43.18;12.34;99607.47;5113796;28;41826;-79
2022/05/07 12:15:10;;;;;;;2.00;1.20;;;;;;;40.95;14.38;99583.13;5077785;28;41938;-84
2022/05/07 12:17:52;;;;;;;1.08;1.08;;;;;;;38.82;17.21;99568.91;5092930;28;43500;-82